Wetterdaten: Woche 21.02.11 - 27.02.11 (KW8)
Datum Zeit Temperatur Luftfeuchte Luftdruck Niederschlag Windrichtung Sonnenschein Solar Wind
21.02.2011 00:00 -1,7 C 96 % 1014,5 hPa 0,0 l/m NO 0,00 h 0 W/m 5,2 km/h (1 Bft)
21.02.2011 01:00 -1,9 C 95 % 1014,6 hPa 0,0 l/m N-NO 0,00 h 0 W/m 5,1 km/h (1 Bft)
21.02.2011 02:00 -2,2 C 95 % 1014,6 hPa 0,2 l/m N-NO 0,00 h 0 W/m 4,9 km/h (1 Bft)
21.02.2011 03:00 -2,4 C 95 % 1014,6 hPa 0,0 l/m N 0,00 h 0 W/m 4,1 km/h (1 Bft)
21.02.2011 04:00 -2,7 C 95 % 1014,5 hPa 0,2 l/m N-NO 0,00 h 0 W/m 4,1 km/h (1 Bft)
21.02.2011 05:00 -2,8 C 95 % 1014,8 hPa 0,2 l/m N 0,00 h 0 W/m 3,5 km/h (1 Bft)
21.02.2011 06:00 -2,8 C 95 % 1015,0 hPa 0,4 l/m N 0,00 h 0 W/m 2,8 km/h (1 Bft)
21.02.2011 07:00 -3,0 C 95 % 1015,1 hPa 0,2 l/m N 0,00 h 5 W/m 3,1 km/h (1 Bft)
21.02.2011 08:00 -2,8 C 95 % 1015,2 hPa 0,4 l/m N 0,00 h 12 W/m 2,4 km/h (1 Bft)
21.02.2011 09:00 -2,3 C 95 % 1015,4 hPa 0,6 l/m N 0,00 h 20 W/m 4,3 km/h (1 Bft)
21.02.2011 10:00 -1,3 C 93 % 1015,4 hPa 0,0 l/m N-NO 0,00 h 44 W/m 4,5 km/h (1 Bft)
21.02.2011 11:00 -1,0 C 91 % 1015,4 hPa 0,2 l/m NO 0,00 h 47 W/m 5,9 km/h (2 Bft)
21.02.2011 12:00 -0,8 C 91 % 1014,9 hPa 0,0 l/m O 0,00 h 50 W/m 5,5 km/h (1 Bft)
21.02.2011 13:00 -0,6 C 91 % 1014,3 hPa 0,0 l/m N-NO 0,00 h 53 W/m 6,0 km/h (2 Bft)
21.02.2011 14:00 -0,6 C 92 % 1014,1 hPa 0,0 l/m N-NO 0,00 h 38 W/m 4,9 km/h (1 Bft)
21.02.2011 15:00 -0,6 C 92 % 1014,3 hPa 0,0 l/m N-NO 0,00 h 33 W/m 4,9 km/h (1 Bft)
21.02.2011 16:00 -0,7 C 92 % 1014,1 hPa 0,0 l/m NO 0,00 h 21 W/m 4,1 km/h (1 Bft)
21.02.2011 17:00 -1,0 C 93 % 1013,7 hPa 0,0 l/m N 0,00 h 7 W/m 3,1 km/h (1 Bft)
21.02.2011 18:00 -1,3 C 94 % 1013,6 hPa 0,0 l/m NO 0,00 h 0 W/m 2,7 km/h (1 Bft)
21.02.2011 19:00 -1,5 C 95 % 1013,5 hPa 0,0 l/m O-NO 0,00 h 0 W/m 4,4 km/h (1 Bft)
21.02.2011 20:00 -1,7 C 95 % 1013,1 hPa 0,0 l/m NO 0,00 h 0 W/m 4,9 km/h (1 Bft)
21.02.2011 21:00 -1,8 C 95 % 1013,0 hPa 0,0 l/m NO 0,00 h 0 W/m 4,9 km/h (1 Bft)
21.02.2011 22:00 -2,0 C 95 % 1012,7 hPa 0,0 l/m NO 0,00 h 0 W/m 5,7 km/h (1 Bft)
21.02.2011 23:00 -2,2 C 95 % 1012,3 hPa 0,0 l/m O-NO 0,00 h 0 W/m 5,9 km/h (2 Bft)
22.02.2011 00:00 -2,3 C 94 % 1012,3 hPa 0,0 l/m O-NO 0,00 h 0 W/m 5,3 km/h (1 Bft)
22.02.2011 01:00 -2,4 C 94 % 1012,2 hPa 0,0 l/m NO 0,00 h 0 W/m 6,4 km/h (2 Bft)
22.02.2011 02:00 -2,6 C 94 % 1012,2 hPa 0,0 l/m NO 0,00 h 0 W/m 7,3 km/h (2 Bft)
22.02.2011 03:00 -2,8 C 94 % 1012,0 hPa 0,0 l/m NO 0,00 h 0 W/m 7,9 km/h (2 Bft)
22.02.2011 04:00 -3,0 C 94 % 1012,0 hPa 0,0 l/m O-NO 0,00 h 0 W/m 6,3 km/h (2 Bft)
22.02.2011 05:00 -3,2 C 94 % 1011,9 hPa 0,0 l/m NO 0,00 h 0 W/m 7,2 km/h (2 Bft)
22.02.2011 06:00 -3,5 C 93 % 1012,2 hPa 0,0 l/m NO 0,00 h 0 W/m 8,4 km/h (2 Bft)
22.02.2011 07:00 -3,7 C 93 % 1012,6 hPa 0,0 l/m O-NO 0,00 h 6 W/m 7,6 km/h (2 Bft)
22.02.2011 08:00 -3,8 C 94 % 1013,0 hPa 0,0 l/m NO 0,00 h 15 W/m 9,9 km/h (2 Bft)
22.02.2011 09:00 -3,8 C 92 % 1013,3 hPa 0,0 l/m N-NO 0,00 h 31 W/m 10,1 km/h (2 Bft)
22.02.2011 10:00 -3,6 C 92 % 1013,8 hPa 0,0 l/m O-NO 0,00 h 53 W/m 8,7 km/h (2 Bft)
22.02.2011 11:00 -3,3 C 91 % 1014,3 hPa 0,0 l/m NO 0,00 h 72 W/m 8,8 km/h (2 Bft)
22.02.2011 12:00 -3,0 C 90 % 1014,6 hPa 0,0 l/m O-NO 0,00 h 90 W/m 7,1 km/h (2 Bft)
22.02.2011 13:00 -2,3 C 88 % 1014,9 hPa 0,0 l/m N-NO 0,00 h 176 W/m 9,1 km/h (2 Bft)
22.02.2011 14:00 -2,0 C 86 % 1015,2 hPa 0,0 l/m NO 0,00 h 142 W/m 11,2 km/h (2 Bft)
22.02.2011 15:00 -2,4 C 86 % 1015,8 hPa 0,0 l/m NO 0,00 h 99 W/m 10,9 km/h (2 Bft)
22.02.2011 16:00 -2,7 C 86 % 1016,5 hPa 0,0 l/m O-NO 0,00 h 58 W/m 8,6 km/h (2 Bft)
22.02.2011 17:00 -3,3 C 85 % 1017,5 hPa 0,0 l/m O 0,00 h 12 W/m 3,7 km/h (1 Bft)
22.02.2011 18:00 -4,4 C 86 % 1018,6 hPa 0,0 l/m N 0,00 h 0 W/m 0,9 km/h (0 Bft)
22.02.2011 19:00 -6,0 C 89 % 1019,1 hPa 0,0 l/m N 0,00 h 0 W/m 0,4 km/h (0 Bft)
22.02.2011 20:00 -7,0 C 91 % 1019,7 hPa 0,0 l/m N 0,00 h 0 W/m 0,0 km/h (0 Bft)
22.02.2011 21:00 -7,8 C 92 % 1020,2 hPa 0,0 l/m N 0,00 h 0 W/m 0,1 km/h (0 Bft)
22.02.2011 22:00 -8,3 C 92 % 1020,9 hPa 0,0 l/m N 0,00 h 0 W/m 0,9 km/h (0 Bft)
22.02.2011 23:00 -8,7 C 93 % 1021,6 hPa 0,0 l/m N-NW 0,00 h 0 W/m 3,5 km/h (1 Bft)
23.02.2011 00:00 -8,7 C 93 % 1021,9 hPa 0,0 l/m N 0,00 h 0 W/m 1,6 km/h (1 Bft)
23.02.2011 01:00 -9,2 C 92 % 1022,3 hPa 0,0 l/m N 0,00 h 0 W/m 0,7 km/h (0 Bft)
23.02.2011 02:00 -9,8 C 92 % 1022,6 hPa 0,0 l/m N 0,00 h 0 W/m 0,0 km/h (0 Bft)
23.02.2011 03:00 -10,4 C 91 % 1023,1 hPa 0,0 l/m N 0,00 h 0 W/m 1,1 km/h (0 Bft)
23.02.2011 04:00 -10,5 C 92 % 1023,9 hPa 0,0 l/m NW 0,00 h 0 W/m 3,5 km/h (1 Bft)
23.02.2011 05:00 -10,3 C 92 % 1024,4 hPa 0,0 l/m N 0,00 h 0 W/m 1,3 km/h (1 Bft)
23.02.2011 06:00 -11,3 C 90 % 1024,8 hPa 0,0 l/m N 0,00 h 0 W/m 0,0 km/h (0 Bft)
23.02.2011 07:00 -12,0 C 90 % 1025,8 hPa 0,0 l/m N 0,00 h 17 W/m 0,0 km/h (0 Bft)
23.02.2011 08:00 -11,7 C 91 % 1026,6 hPa 0,0 l/m N 0,00 h 62 W/m 0,0 km/h (0 Bft)
23.02.2011 09:00 -9,7 C 93 % 1026,9 hPa 0,0 l/m N 0,00 h 96 W/m 0,1 km/h (0 Bft)
23.02.2011 10:00 -7,0 C 92 % 1027,3 hPa 0,0 l/m N 0,42 h 210 W/m 0,9 km/h (0 Bft)
23.02.2011 11:00 -4,3 C 83 % 1027,7 hPa 0,0 l/m S-SO 1,00 h 460 W/m 2,8 km/h (1 Bft)
23.02.2011 12:00 -2,9 C 75 % 1027,6 hPa 0,0 l/m SO 1,00 h 535 W/m 5,7 km/h (1 Bft)
23.02.2011 13:00 -2,1 C 72 % 1027,1 hPa 0,0 l/m O-SO 1,00 h 510 W/m 5,7 km/h (1 Bft)
23.02.2011 14:00 -1,6 C 67 % 1026,7 hPa 0,0 l/m SO 0,92 h 367 W/m 5,2 km/h (1 Bft)
23.02.2011 15:00 -1,3 C 68 % 1026,5 hPa 0,0 l/m S-SW 0,92 h 299 W/m 4,3 km/h (1 Bft)
23.02.2011 16:00 -1,1 C 64 % 1026,5 hPa 0,0 l/m S-SW 0,33 h 107 W/m 2,7 km/h (1 Bft)
23.02.2011 17:00 -2,4 C 73 % 1026,7 hPa 0,0 l/m N 0,17 h 21 W/m 0,8 km/h (0 Bft)
23.02.2011 18:00 -4,0 C 82 % 1027,2 hPa 0,0 l/m N 0,00 h 0 W/m 0,3 km/h (0 Bft)
23.02.2011 19:00 -5,2 C 86 % 1027,5 hPa 0,0 l/m N 0,00 h 0 W/m 0,4 km/h (0 Bft)
23.02.2011 20:00 -5,9 C 88 % 1027,6 hPa 0,0 l/m N 0,00 h 0 W/m 0,0 km/h (0 Bft)
23.02.2011 21:00 -6,3 C 90 % 1027,5 hPa 0,0 l/m N 0,00 h 0 W/m 0,0 km/h (0 Bft)
23.02.2011 22:00 -6,4 C 91 % 1027,1 hPa 0,0 l/m N 0,00 h 0 W/m 0,0 km/h (0 Bft)
23.02.2011 23:00 -6,7 C 92 % 1027,0 hPa 0,0 l/m N 0,00 h 0 W/m 0,0 km/h (0 Bft)
24.02.2011 00:00 -6,8 C 92 % 1027,0 hPa 0,0 l/m N 0,00 h 0 W/m 0,4 km/h (0 Bft)
24.02.2011 01:00 -6,4 C 91 % 1027,0 hPa 0,0 l/m N 0,00 h 0 W/m 1,6 km/h (1 Bft)
24.02.2011 02:00 -6,5 C 92 % 1026,8 hPa 0,0 l/m N 0,00 h 0 W/m 0,3 km/h (0 Bft)
24.02.2011 03:00 -6,9 C 93 % 1026,5 hPa 0,0 l/m N 0,00 h 0 W/m 0,1 km/h (0 Bft)
24.02.2011 04:00 -6,7 C 93 % 1026,4 hPa 0,0 l/m N 0,00 h 0 W/m 0,0 km/h (0 Bft)
24.02.2011 05:00 -6,7 C 93 % 1026,4 hPa 0,0 l/m N 0,00 h 0 W/m 0,0 km/h (0 Bft)
24.02.2011 06:00 -6,8 C 93 % 1026,4 hPa 0,0 l/m N 0,00 h 0 W/m 0,1 km/h (0 Bft)
24.02.2011 07:00 -6,7 C 93 % 1026,8 hPa 0,0 l/m N 0,58 h 31 W/m 0,8 km/h (0 Bft)
24.02.2011 08:00 -5,7 C 91 % 1027,0 hPa 0,0 l/m N 0,42 h 95 W/m 0,3 km/h (0 Bft)
24.02.2011 09:00 -4,2 C 88 % 1027,2 hPa 0,0 l/m N-NW 0,00 h 122 W/m 2,1 km/h (1 Bft)
24.02.2011 10:00 -1,2 C 83 % 1027,1 hPa 0,0 l/m S-SW 0,58 h 306 W/m 7,8 km/h (2 Bft)
24.02.2011 11:00 0,9 C 79 % 1027,3 hPa 0,0 l/m S-SW 1,00 h 482 W/m 8,7 km/h (2 Bft)
24.02.2011 12:00 2,6 C 72 % 1027,1 hPa 0,0 l/m S-SW 1,00 h 526 W/m 9,5 km/h (2 Bft)
24.02.2011 13:00 3,5 C 72 % 1026,9 hPa 0,0 l/m SW 1,00 h 446 W/m 10,9 km/h (2 Bft)
24.02.2011 14:00 3,3 C 74 % 1026,6 hPa 0,0 l/m S-SW 0,25 h 224 W/m 10,5 km/h (2 Bft)
24.02.2011 15:00 2,7 C 79 % 1026,2 hPa 0,0 l/m SW 0,00 h 125 W/m 10,8 km/h (2 Bft)
24.02.2011 16:00 2,1 C 83 % 1026,6 hPa 0,0 l/m SW 0,00 h 66 W/m 11,0 km/h (2 Bft)
24.02.2011 17:00 1,3 C 88 % 1027,1 hPa 0,0 l/m SW 0,00 h 11 W/m 7,2 km/h (2 Bft)
24.02.2011 18:00 0,9 C 90 % 1027,5 hPa 0,0 l/m S-SW 0,00 h 0 W/m 6,7 km/h (2 Bft)
24.02.2011 19:00 0,6 C 92 % 1027,8 hPa 0,0 l/m S-SW 0,00 h 0 W/m 7,9 km/h (2 Bft)
24.02.2011 20:00 0,3 C 94 % 1028,1 hPa 0,0 l/m S-SW 0,00 h 0 W/m 8,3 km/h (2 Bft)
24.02.2011 21:00 0,3 C 95 % 1028,4 hPa 0,0 l/m SW 0,00 h 0 W/m 3,7 km/h (1 Bft)
24.02.2011 22:00 0,2 C 97 % 1028,3 hPa 0,0 l/m S-SW 0,00 h 0 W/m 4,7 km/h (1 Bft)
24.02.2011 23:00 0,3 C 97 % 1028,1 hPa 0,0 l/m SW 0,00 h 0 W/m 4,9 km/h (1 Bft)
25.02.2011 00:00 0,4 C 97 % 1028,2 hPa 0,0 l/m SW 0,00 h 0 W/m 3,5 km/h (1 Bft)
25.02.2011 01:00 0,3 C 98 % 1028,3 hPa 0,0 l/m SW 0,00 h 0 W/m 3,1 km/h (1 Bft)
25.02.2011 02:00 0,2 C 98 % 1028,2 hPa 0,0 l/m SW 0,00 h 0 W/m 2,5 km/h (1 Bft)
25.02.2011 03:00 0,2 C 98 % 1028,1 hPa 0,0 l/m N 0,00 h 0 W/m 0,8 km/h (0 Bft)
25.02.2011 04:00 0,3 C 99 % 1028,0 hPa 0,0 l/m N 0,00 h 0 W/m 0,4 km/h (0 Bft)
25.02.2011 05:00 0,2 C 99 % 1028,0 hPa 0,0 l/m N 0,00 h 0 W/m 0,0 km/h (0 Bft)
25.02.2011 06:00 0,2 C 99 % 1028,0 hPa 0,0 l/m N 0,00 h 0 W/m 0,0 km/h (0 Bft)
25.02.2011 07:00 0,2 C 99 % 1028,2 hPa 0,0 l/m N 0,00 h 10 W/m 0,0 km/h (0 Bft)
25.02.2011 08:00 0,4 C 99 % 1028,9 hPa 0,0 l/m N 0,00 h 31 W/m 0,0 km/h (0 Bft)
25.02.2011 09:00 1,0 C 99 % 1028,9 hPa 0,2 l/m N 0,00 h 88 W/m 0,0 km/h (0 Bft)
25.02.2011 10:00 1,4 C 98 % 1028,9 hPa 0,0 l/m N 0,00 h 103 W/m 0,8 km/h (0 Bft)
25.02.2011 11:00 2,3 C 96 % 1028,9 hPa 0,0 l/m O-NO 0,00 h 167 W/m 3,6 km/h (1 Bft)
25.02.2011 12:00 3,1 C 92 % 1028,5 hPa 0,0 l/m O-NO 0,00 h 218 W/m 3,3 km/h (1 Bft)
25.02.2011 13:00 3,5 C 89 % 1028,3 hPa 0,0 l/m O-NO 0,00 h 121 W/m 3,2 km/h (1 Bft)
25.02.2011 14:00 3,7 C 88 % 1028,2 hPa 0,0 l/m O-NO 0,00 h 127 W/m 2,7 km/h (1 Bft)
25.02.2011 15:00 3,9 C 87 % 1028,1 hPa 0,0 l/m O-NO 0,00 h 95 W/m 2,8 km/h (1 Bft)
25.02.2011 16:00 3,8 C 87 % 1028,1 hPa 0,0 l/m N 0,00 h 39 W/m 2,3 km/h (1 Bft)
25.02.2011 17:00 3,7 C 87 % 1027,9 hPa 0,0 l/m O-NO 0,00 h 17 W/m 3,5 km/h (1 Bft)
25.02.2011 18:00 3,1 C 90 % 1028,0 hPa 0,0 l/m N 0,00 h 0 W/m 1,2 km/h (1 Bft)
25.02.2011 19:00 2,1 C 94 % 1028,0 hPa 0,0 l/m N 0,00 h 0 W/m 0,5 km/h (0 Bft)
25.02.2011 20:00 1,0 C 96 % 1027,4 hPa 0,0 l/m N 0,00 h 0 W/m 0,0 km/h (0 Bft)
25.02.2011 21:00 -0,1 C 97 % 1027,1 hPa 0,0 l/m N 0,00 h 0 W/m 0,1 km/h (0 Bft)
25.02.2011 22:00 -0,6 C 98 % 1027,1 hPa 0,0 l/m O-NO 0,00 h 0 W/m 2,4 km/h (1 Bft)
25.02.2011 23:00 -0,7 C 98 % 1026,9 hPa 0,0 l/m N-NO 0,00 h 0 W/m 4,5 km/h (1 Bft)
26.02.2011 00:00 -1,1 C 98 % 1026,5 hPa 0,0 l/m N 0,00 h 0 W/m 2,4 km/h (1 Bft)
26.02.2011 01:00 -2,1 C 98 % 1025,8 hPa 0,0 l/m N 0,00 h 0 W/m 0,0 km/h (0 Bft)
26.02.2011 02:00 -2,5 C 98 % 1025,1 hPa 0,0 l/m N 0,00 h 0 W/m 1,7 km/h (1 Bft)
26.02.2011 03:00 -3,2 C 98 % 1024,3 hPa 0,0 l/m N 0,00 h 0 W/m 3,1 km/h (1 Bft)
26.02.2011 04:00 -3,7 C 98 % 1023,6 hPa 0,0 l/m N-NW 0,00 h 0 W/m 6,7 km/h (2 Bft)
26.02.2011 05:00 -3,5 C 98 % 1023,1 hPa 0,0 l/m N-NW 0,00 h 0 W/m 4,7 km/h (1 Bft)
26.02.2011 06:00 -3,3 C 98 % 1022,8 hPa 0,0 l/m N 0,00 h 0 W/m 3,2 km/h (1 Bft)
26.02.2011 07:00 -3,5 C 98 % 1022,2 hPa 0,0 l/m N-NW 0,00 h 16 W/m 2,0 km/h (1 Bft)
26.02.2011 08:00 -3,1 C 98 % 1021,8 hPa 0,0 l/m N-NW 0,00 h 51 W/m 4,0 km/h (1 Bft)
26.02.2011 09:00 -2,7 C 98 % 1021,2 hPa 0,0 l/m N-NW 0,00 h 114 W/m 3,2 km/h (1 Bft)
26.02.2011 10:00 -1,9 C 99 % 1020,7 hPa 0,2 l/m N-NW 0,00 h 186 W/m 2,7 km/h (1 Bft)
26.02.2011 11:00 -1,1 C 99 % 1020,1 hPa 0,0 l/m N-NW 0,08 h 251 W/m 5,1 km/h (1 Bft)
26.02.2011 12:00 0,3 C 99 % 1019,1 hPa 0,0 l/m N-NW 0,67 h 344 W/m 3,7 km/h (1 Bft)
26.02.2011 13:00 2,8 C 93 % 1018,0 hPa 0,0 l/m N-NW 1,00 h 474 W/m 4,8 km/h (1 Bft)
26.02.2011 14:00 4,9 C 83 % 1017,1 hPa 0,0 l/m S-SW 0,67 h 305 W/m 9,8 km/h (2 Bft)
26.02.2011 15:00 4,3 C 85 % 1016,7 hPa 0,0 l/m W-SW 0,00 h 179 W/m 9,8 km/h (2 Bft)
26.02.2011 16:00 3,1 C 89 % 1016,3 hPa 0,0 l/m SW 0,00 h 52 W/m 15,6 km/h (3 Bft)
26.02.2011 17:00 1,8 C 92 % 1015,6 hPa 0,0 l/m W-SW 0,00 h 11 W/m 11,1 km/h (2 Bft)
26.02.2011 18:00 1,7 C 95 % 1015,2 hPa 0,0 l/m SW 0,00 h 0 W/m 7,9 km/h (2 Bft)
26.02.2011 19:00 1,6 C 96 % 1014,9 hPa 0,0 l/m S-SW 0,00 h 0 W/m 4,9 km/h (1 Bft)
26.02.2011 20:00 1,6 C 97 % 1014,7 hPa 0,0 l/m S-SW 0,00 h 0 W/m 4,4 km/h (1 Bft)
26.02.2011 21:00 1,6 C 98 % 1014,3 hPa 0,0 l/m S-SW 0,00 h 0 W/m 7,6 km/h (2 Bft)
26.02.2011 22:00 1,8 C 98 % 1013,6 hPa 0,2 l/m SW 0,00 h 0 W/m 11,4 km/h (2 Bft)
26.02.2011 23:00 2,5 C 98 % 1013,1 hPa 1,6 l/m W-SW 0,00 h 0 W/m 13,4 km/h (3 Bft)
27.02.2011 00:00 2,2 C 97 % 1012,9 hPa 0,8 l/m W-SW 0,00 h 0 W/m 12,9 km/h (3 Bft)
27.02.2011 01:00 2,0 C 98 % 1012,8 hPa 0,2 l/m W-SW 0,00 h 0 W/m 8,2 km/h (2 Bft)
27.02.2011 02:00 2,5 C 98 % 1012,4 hPa 0,0 l/m W-SW 0,00 h 0 W/m 9,4 km/h (2 Bft)
27.02.2011 03:00 2,6 C 98 % 1012,1 hPa 0,0 l/m SW 0,00 h 0 W/m 6,5 km/h (2 Bft)
27.02.2011 04:00 2,6 C 99 % 1012,1 hPa 0,0 l/m SW 0,00 h 0 W/m 7,9 km/h (2 Bft)
27.02.2011 05:00 2,8 C 98 % 1012,4 hPa 0,0 l/m SW 0,00 h 0 W/m 10,1 km/h (2 Bft)
27.02.2011 06:00 2,3 C 98 % 1012,6 hPa 0,0 l/m W-SW 0,00 h 0 W/m 7,0 km/h (2 Bft)
27.02.2011 07:00 1,5 C 97 % 1013,1 hPa 0,0 l/m W-SW 0,00 h 21 W/m 3,2 km/h (1 Bft)
27.02.2011 08:00 1,7 C 99 % 1013,6 hPa 0,0 l/m S 0,00 h 46 W/m 3,7 km/h (1 Bft)
27.02.2011 09:00 3,2 C 98 % 1013,8 hPa 0,0 l/m W-NW 0,00 h 92 W/m 10,9 km/h (2 Bft)
27.02.2011 10:00 3,8 C 96 % 1013,9 hPa 0,0 l/m W-SW 0,00 h 91 W/m 11,2 km/h (2 Bft)
27.02.2011 11:00 4,5 C 95 % 1014,2 hPa 0,0 l/m SW 0,00 h 173 W/m 9,0 km/h (2 Bft)
27.02.2011 12:00 6,1 C 89 % 1014,1 hPa 0,0 l/m SW 0,58 h 432 W/m 12,6 km/h (3 Bft)
27.02.2011 13:00 5,2 C 89 % 1014,1 hPa 0,6 l/m W-NW 0,17 h 156 W/m 14,7 km/h (3 Bft)
27.02.2011 14:00 4,9 C 92 % 1014,0 hPa 0,0 l/m W-SW 0,17 h 190 W/m 9,9 km/h (2 Bft)
27.02.2011 15:00 5,4 C 91 % 1013,9 hPa 0,4 l/m SW 0,25 h 135 W/m 5,9 km/h (2 Bft)
27.02.2011 16:00 4,7 C 92 % 1014,3 hPa 0,0 l/m W-NW 0,00 h 19 W/m 7,8 km/h (2 Bft)
27.02.2011 17:00 4,3 C 92 % 1015,0 hPa 0,0 l/m N 0,00 h 21 W/m 6,8 km/h (2 Bft)
27.02.2011 18:00 4,0 C 93 % 1015,5 hPa 0,0 l/m N 0,00 h 0 W/m 3,1 km/h (1 Bft)
27.02.2011 19:00 3,6 C 95 % 1016,0 hPa 0,0 l/m NW 0,00 h 0 W/m 5,9 km/h (2 Bft)
27.02.2011 20:00 3,1 C 93 % 1016,6 hPa 0,0 l/m O-NO 0,00 h 0 W/m 7,0 km/h (2 Bft)
27.02.2011 21:00 2,5 C 96 % 1017,0 hPa 0,0 l/m N 0,00 h 0 W/m 1,2 km/h (1 Bft)
27.02.2011 22:00 2,5 C 96 % 1017,1 hPa 0,0 l/m N 0,00 h 0 W/m 1,6 km/h (1 Bft)
27.02.2011 23:00 2,3 C 95 % 1017,4 hPa 0,0 l/m O-NO 0,00 h 0 W/m 1,7 km/h (1 Bft)
Min-Datum _ 23.02.11 23.02.11 22.02.11 - - - - 21.02.11
_ Min-Zeit 07:55 16:15 03:50 - - - - 06:20
Minimum _ -12,2 C 56 % 1011,8 hPa - - - - 0,0 km/h (0 Bft)
Max-Datum _ 27.02.11 22.02.11 25.02.11 26.02.11 - 23.02.11 26.02.11 26.02.11
_ Max-Zeit 12:45 08:35 08:40 23:40 - 10:35 13:00 23:35
Maximum _ 6,8 C 100 % 1029,1 hPa 1,6 l/m - 0,08 h 677 W/m 24,1 km/h
W-SW (4 Bft)
Durchschnitt _ -1,4 C 92 % 1020,6 hPa #6,6 l/m SW #14:10 h 137 W/m 4,6 km/h (1 Bft)